createdAt,value
2019-03-01T00:00:12.901Z,-0.1
2019-03-01T00:05:09.284Z,-0.8
2019-03-01T00:10:06.009Z,-1.1
2019-03-01T00:15:02.621Z,0
2019-03-01T00:19:59.073Z,-1.1
2019-03-01T00:24:55.563Z,-1.2
2019-03-01T00:29:52.412Z,-0.4
2019-03-01T00:34:48.464Z,-1.3
2019-03-01T00:39:45.481Z,-0.9
2019-03-01T00:44:42.707Z,-0.2
2019-03-01T00:49:39.182Z,-1.1
2019-03-01T00:54:35.933Z,-1.3
2019-03-01T00:59:32.225Z,-1.2
2019-03-01T01:04:29.100Z,-0.9
2019-03-01T01:09:25.576Z,-1.5
2019-03-01T01:14:22.745Z,-0.8
2019-03-01T01:19:19.609Z,-0.5
2019-03-01T01:24:16.002Z,-0.9
2019-03-01T01:29:12.661Z,-1.1
2019-03-01T01:34:09.433Z,-1.8
2019-03-01T01:39:06.360Z,-1.7
2019-03-01T01:44:03.042Z,-1.8
2019-03-01T01:49:00.282Z,-1.3
2019-03-01T01:53:56.704Z,-1.3
2019-03-01T01:58:53.975Z,0.5
2019-03-01T02:03:50.241Z,-1
2019-03-01T02:08:46.899Z,-0.4
2019-03-01T02:13:42.886Z,-0.7
2019-03-01T02:18:39.097Z,-1.5
2019-03-01T02:23:35.722Z,-0.5
2019-03-01T02:28:32.162Z,-1.8
2019-03-01T02:33:28.351Z,-1.8
2019-03-01T02:38:24.986Z,-1.7
2019-03-01T02:43:21.850Z,-1
2019-03-01T02:48:18.515Z,-1.8
2019-03-01T02:53:15.343Z,-2
2019-03-01T02:58:12.092Z,-1.6
2019-03-01T03:03:09.070Z,-0.6
2019-03-01T03:08:06.024Z,-1
2019-03-01T03:13:02.034Z,-2.2
2019-03-01T03:17:58.699Z,-2.2
2019-03-01T03:22:55.244Z,-2.2
2019-03-01T03:27:52.124Z,-1.4
2019-03-01T03:32:48.723Z,-2.3
2019-03-01T03:37:45.327Z,-2.3
2019-03-01T03:42:42.654Z,-1.1
2019-03-01T03:47:39.909Z,-1.7
2019-03-01T03:52:36.310Z,-2.5
2019-03-01T03:57:33.240Z,-2.5
2019-03-01T04:02:29.694Z,-2.7
2019-03-01T04:07:26.294Z,-2.5
2019-03-01T04:12:23.107Z,-2.6
2019-03-01T04:17:19.683Z,-2
2019-03-01T04:22:16.323Z,-2.6
2019-03-01T04:27:13.170Z,-2.7
2019-03-01T04:32:09.599Z,-2.4
2019-03-01T04:37:06.223Z,-2.9
2019-03-01T04:42:03.175Z,-2.6
2019-03-01T04:47:00.574Z,-1.4
2019-03-01T04:51:57.306Z,-1.7
2019-03-01T04:56:53.993Z,-1.7
2019-03-01T05:01:50.323Z,-1.8
2019-03-01T05:06:46.906Z,-0.8
2019-03-01T05:11:42.485Z,-1.3
2019-03-01T05:16:38.813Z,-1.8
2019-03-01T05:21:34.872Z,-2.5
2019-03-01T05:26:31.415Z,-1.6
2019-03-01T05:31:27.760Z,-1.4
2019-03-01T05:36:24.211Z,-1.9
2019-03-01T05:41:20.948Z,-1
2019-03-01T05:46:18.740Z,-0.4
2019-03-01T05:51:15.563Z,-0.3
2019-03-01T05:56:12.909Z,2.2
2019-03-01T06:01:12.794Z,5.5
2019-03-01T06:06:09.703Z,3.7
2019-03-01T06:11:04.264Z,1.2
2019-03-01T06:16:01.472Z,3.3
2019-03-01T06:21:00.813Z,2.5
2019-03-01T06:25:57.453Z,3.4
2019-03-01T06:30:54.128Z,5.3
2019-03-01T06:35:49.694Z,3.5
2019-03-01T06:40:46.830Z,2.8
2019-03-01T06:45:43.636Z,3.9
2019-03-01T06:50:39.851Z,5.3
2019-03-01T06:55:38.964Z,6.6
2019-03-01T07:00:35.228Z,6.3
2019-03-01T07:05:31.007Z,5.6
2019-03-01T07:10:26.968Z,4.8
2019-03-01T07:15:25.003Z,6.9
2019-03-01T07:20:20.698Z,6.2
2019-03-01T07:25:18.224Z,6.3
2019-03-01T07:30:16.201Z,5.8
2019-03-01T07:35:12.806Z,8.3
2019-03-01T07:40:10.809Z,9.7
2019-03-01T07:45:07.786Z,10.1
2019-03-01T07:50:00.712Z,8
2019-03-01T07:54:57.090Z,4.8
2019-03-01T07:59:55.376Z,6.1
2019-03-01T08:04:51.946Z,7.2
2019-03-01T08:09:48.580Z,6.4
2019-03-01T08:14:45.932Z,7
2019-03-01T08:19:45.582Z,7.7
2019-03-01T08:24:42.731Z,9.2
2019-03-01T08:29:43.304Z,9.9
2019-03-01T08:34:40.578Z,11.1
2019-03-01T08:39:39.657Z,10.6
2019-03-01T08:44:36.302Z,11
2019-03-01T08:49:33.619Z,10.9
2019-03-01T08:54:31.098Z,9.8
2019-03-01T08:59:24.960Z,8.7
2019-03-01T09:04:22.592Z,8.9
2019-03-01T09:09:17.525Z,8.2
2019-03-01T09:14:17.454Z,8.7
2019-03-01T09:19:14.012Z,8.8
2019-03-01T09:24:10.829Z,9.3
2019-03-01T09:29:09.029Z,10.8
2019-03-01T09:34:06.226Z,11.4
2019-03-01T09:39:03.930Z,12.7
2019-03-01T09:44:02.866Z,12.3
2019-03-01T09:49:00.911Z,13.3
2019-03-01T09:53:57.833Z,13.8
2019-03-01T09:58:54.991Z,13.9
2019-03-01T10:03:53.220Z,14.8
2019-03-01T10:08:50.084Z,14.1
2019-03-01T10:13:47.379Z,15.1
2019-03-01T10:18:43.791Z,14.6
2019-03-01T10:23:42.400Z,15.9
2019-03-01T10:28:37.925Z,15.6
2019-03-01T10:33:35.556Z,15.8
2019-03-01T10:38:31.283Z,14.9
2019-03-01T10:43:28.675Z,16.1
2019-03-01T10:48:24.786Z,15.5
2019-03-01T10:53:21.812Z,16.1
2019-03-01T10:58:18.874Z,16.7
2019-03-01T11:03:15.921Z,16.7
2019-03-01T11:08:12.850Z,16.9
2019-03-01T11:13:09.230Z,16.6
2019-03-01T11:18:05.331Z,16.6
2019-03-01T11:23:01.428Z,16.5
2019-03-01T11:27:58.681Z,16
2019-03-01T11:32:55.639Z,16.4
2019-03-01T11:37:52.251Z,15.7
2019-03-01T11:42:49.354Z,16.3
2019-03-01T11:47:46.363Z,16.3
2019-03-01T11:52:42.846Z,16.5
2019-03-01T11:57:39.936Z,16.4
2019-03-01T12:02:36.291Z,16.3
2019-03-01T12:07:32.559Z,15.8
2019-03-01T12:12:29.416Z,16.1
2019-03-01T12:17:26.658Z,16
2019-03-01T12:22:23.525Z,16.1
2019-03-01T12:27:20.557Z,15.5
2019-03-01T12:32:16.784Z,16
2019-03-01T12:37:13.678Z,15.8
2019-03-01T12:42:10.691Z,16
2019-03-01T12:47:06.805Z,14.8
2019-03-01T12:52:04.042Z,15.7
2019-03-01T12:57:00.415Z,16
2019-03-01T13:01:57.048Z,15.6
2019-03-01T13:06:53.963Z,15.2
2019-03-01T13:11:51.301Z,15.5
2019-03-01T13:16:48.760Z,15.2
2019-03-01T13:21:45.484Z,15.6
2019-03-01T13:26:44.524Z,15.4
2019-03-01T13:31:43.893Z,15.6
2019-03-01T13:36:42.472Z,15.7
2019-03-01T13:41:39.083Z,15.1
2019-03-01T13:46:35.703Z,14.4
2019-03-01T13:51:32.336Z,15
2019-03-01T13:56:28.730Z,14.9
2019-03-01T14:01:27.055Z,14.6
2019-03-01T14:06:24.204Z,14.7
2019-03-01T14:11:22.668Z,14.6
2019-03-01T14:16:20.372Z,13.9
2019-03-01T14:21:17.720Z,14.4
2019-03-01T14:26:15.015Z,14.2
2019-03-01T14:36:16.702Z,13.5
2019-03-01T14:41:13.643Z,14.1
2019-03-01T14:46:10.351Z,13.6
2019-03-01T14:51:06.962Z,13.4
2019-03-01T14:56:07.141Z,13.3
2019-03-01T15:01:03.582Z,12.9
2019-03-01T15:06:00.335Z,12.7
2019-03-01T15:10:57.296Z,12.6
2019-03-01T15:15:53.819Z,12.1
2019-03-01T15:20:50.331Z,12
2019-03-01T15:25:48.426Z,11.9
2019-03-01T15:30:46.391Z,11.5
2019-03-01T15:35:43.320Z,11.2
2019-03-01T15:40:39.874Z,10.9
2019-03-01T15:45:39.487Z,9.9
2019-03-01T15:50:36.267Z,9.4
2019-03-01T15:55:32.172Z,8.9
2019-03-01T16:00:29.362Z,8.9
2019-03-01T16:05:26.460Z,8.5
2019-03-01T16:10:22.926Z,8.1
2019-03-01T16:15:19.429Z,7.6
2019-03-01T16:20:16.145Z,7.5
2019-03-01T16:25:12.226Z,7.3
2019-03-01T16:30:08.773Z,6.7
2019-03-01T16:35:05.224Z,6.4
2019-03-01T16:40:01.676Z,6.7
2019-03-01T16:44:58.259Z,6.3
2019-03-01T16:49:54.800Z,6.3
2019-03-01T16:54:52.506Z,6.3
2019-03-01T16:59:50.692Z,5.5
2019-03-01T17:04:47.360Z,5.2
2019-03-01T17:09:43.617Z,6
2019-03-01T17:14:40.254Z,6
2019-03-01T17:19:36.932Z,5.8
2019-03-01T17:24:33.647Z,5.4
2019-03-01T17:29:31.590Z,5.5
2019-03-01T17:34:29.415Z,5.6
2019-03-01T17:39:25.903Z,5.5
2019-03-01T17:44:23.838Z,5.1
2019-03-01T17:49:20.058Z,4.6
2019-03-01T17:54:18.931Z,5.1
2019-03-01T17:59:17.562Z,5.2
2019-03-01T18:04:13.648Z,4.8
2019-03-01T18:09:09.325Z,4.2
2019-03-01T18:14:05.901Z,4.6
2019-03-01T18:19:02.268Z,4.6
2019-03-01T18:23:59.429Z,5.2
2019-03-01T18:28:56.241Z,5
2019-03-01T18:33:53.630Z,5
2019-03-01T18:38:53.006Z,4.6
2019-03-01T18:43:50.266Z,4.8
2019-03-01T18:48:47.098Z,4.9
2019-03-01T18:53:45.496Z,5
2019-03-01T18:58:41.723Z,4.7
2019-03-01T19:03:40.154Z,4.6
2019-03-01T19:08:39.556Z,4.1
2019-03-01T19:13:36.461Z,4.9
2019-03-01T19:18:33.588Z,5.1
2019-03-01T19:23:32.326Z,4.9
2019-03-01T19:28:28.996Z,4.5
2019-03-01T19:33:25.567Z,4.4
2019-03-01T19:38:25.054Z,4.9
2019-03-01T19:43:21.373Z,4.6
2019-03-01T19:48:17.927Z,4.2
2019-03-01T19:53:14.679Z,4.4
2019-03-01T19:58:11.866Z,4.4
2019-03-01T20:03:10.025Z,4.1
2019-03-01T20:08:07.314Z,3.5
2019-03-01T20:13:04.057Z,4
2019-03-01T20:18:00.567Z,3.9
2019-03-01T20:22:56.594Z,3.6
2019-03-01T20:27:53.266Z,3.9
2019-03-01T20:32:50.907Z,4
2019-03-01T20:37:48.648Z,4.3
2019-03-01T20:42:44.765Z,3.7
2019-03-01T20:47:41.492Z,3.5
2019-03-01T20:52:38.701Z,2.8
2019-03-01T20:57:35.201Z,3.2
2019-03-01T21:02:31.551Z,3.2
2019-03-01T21:07:27.783Z,3.2
2019-03-01T21:12:24.434Z,3.2
2019-03-01T21:17:21.593Z,3.3
2019-03-01T21:22:17.669Z,3.2
2019-03-01T21:27:14.361Z,3
2019-03-01T21:32:11.686Z,2.8
2019-03-01T21:37:10.216Z,2.8
2019-03-01T21:42:06.928Z,2.9
2019-03-01T21:47:06.743Z,2.8
2019-03-01T21:52:07.956Z,2.2
2019-03-01T21:57:04.548Z,2.5
2019-03-01T22:02:00.740Z,2.8
2019-03-01T22:07:01.817Z,1.7
2019-03-01T22:11:58.252Z,2.6
2019-03-01T22:16:54.814Z,2.5
2019-03-01T22:21:54.577Z,2.6
2019-03-01T22:26:53.656Z,2.6
2019-03-01T22:31:50.593Z,2.7
2019-03-01T22:36:49.434Z,2.5
2019-03-01T22:41:49.116Z,3.2
2019-03-01T22:46:45.274Z,2.5
2019-03-01T22:51:41.433Z,2.5
2019-03-01T22:56:38.300Z,2.1
2019-03-01T23:01:34.585Z,2.1
2019-03-01T23:06:31.599Z,2.7
2019-03-01T23:11:28.603Z,2.1
2019-03-01T23:16:28.110Z,2.1
2019-03-01T23:21:24.507Z,2.2
2019-03-01T23:26:21.640Z,2.5
2019-03-01T23:31:18.720Z,2
2019-03-01T23:36:15.075Z,1
2019-03-01T23:41:12.679Z,2
2019-03-01T23:46:08.900Z,1.7
2019-03-01T23:51:06.589Z,1.3
2019-03-01T23:56:05.792Z,0.5
